Time;durP1;ratioP1;P1;durP2;ratioP2;P2;SDS_P1;SDS_P2;PMS_P1;PMS_P2;Temp;Humidity;BMP_temperature;BMP_pressure;BME280_temperature;BME280_humidity;BME280_pressure;Samples;Min_cycle;Max_cycle;Signal;HPM_P1;HPM_P2
2022/03/06 00:00:50;;;;;;;10.98;4.88;;;;;;;;;;2077335;28;20029;-69
2022/03/06 00:02:09;;;;;;;10.10;4.90;;;;;;;;;;2075803;28;20042;-67
2022/03/06 00:03:28;;;;;;;9.57;4.47;;;;;;;;;;2078875;28;20486;-68
2022/03/06 00:04:47;;;;;;;10.75;5.03;;;;;;;;;;2078361;28;20174;-69
2022/03/06 00:06:05;;;;;;;6.78;4.50;;;;;;;;;;2079702;28;20029;-70
2022/03/06 00:07:24;;;;;;;4.90;4.40;;;;;;;;;;2079413;28;20483;-69
2022/03/06 00:08:43;;;;;;;9.82;4.95;;;;;;;;;;2076966;28;20526;-69
2022/03/06 00:10:03;;;;;;;5.78;4.35;;;;;;;;;;2078530;28;20113;-69
2022/03/06 00:11:23;;;;;;;6.78;4.20;;;;;;;;;;2079895;28;20045;-69
2022/03/06 00:12:42;;;;;;;8.98;4.90;;;;;;;;;;2079225;28;20045;-68
2022/03/06 00:14:01;;;;;;;12.45;4.45;;;;;;;;;;2077856;28;20030;-68
2022/03/06 00:15:22;;;;;;;10.55;4.80;;;;;;;;;;2077815;28;20108;-68
2022/03/06 00:16:41;;;;;;;8.55;4.47;;;;;;;;;;2077778;28;20029;-68
2022/03/06 00:18:00;;;;;;;10.75;4.60;;;;;;;;;;2079570;28;20060;-68
2022/03/06 00:19:19;;;;;;;7.25;4.57;;;;;;;;;;2078780;28;20025;-68
2022/03/06 00:20:40;;;;;;;6.55;4.43;;;;;;;;;;2078501;28;20030;-67
2022/03/06 00:21:59;;;;;;;9.93;5.00;;;;;;;;;;2078308;28;20492;-68
2022/03/06 00:23:17;;;;;;;8.70;4.15;;;;;;;;;;2079749;28;20030;-67
2022/03/06 00:24:36;;;;;;;7.45;4.22;;;;;;;;;;2078973;28;20037;-69
2022/03/06 00:25:55;;;;;;;7.57;5.00;;;;;;;;;;2079057;28;20026;-68
2022/03/06 00:27:14;;;;;;;12.02;5.03;;;;;;;;;;2080166;28;20061;-67
2022/03/06 00:28:33;;;;;;;8.85;4.30;;;;;;;;;;2078528;28;20034;-68
2022/03/06 00:29:52;;;;;;;5.97;4.30;;;;;;;;;;2079119;28;20045;-71
2022/03/06 00:31:11;;;;;;;8.13;4.65;;;;;;;;;;2078037;28;20069;-68
2022/03/06 00:32:31;;;;;;;13.77;4.53;;;;;;;;;;2078547;28;20037;-68
2022/03/06 00:33:51;;;;;;;6.60;4.85;;;;;;;;;;2080040;28;20112;-68
2022/03/06 00:35:10;;;;;;;6.53;4.00;;;;;;;;;;2079605;28;20037;-68
2022/03/06 00:36:29;;;;;;;9.60;4.47;;;;;;;;;;2077948;28;20041;-68
2022/03/06 00:37:48;;;;;;;9.27;4.45;;;;;;;;;;2079347;28;20029;-68
2022/03/06 00:39:07;;;;;;;7.63;3.92;;;;;;;;;;2079997;28;20033;-68
2022/03/06 00:40:26;;;;;;;9.60;4.38;;;;;;;;;;2078013;28;20033;-70
2022/03/06 00:41:45;;;;;;;8.07;4.55;;;;;;;;;;2080096;28;20033;-69
2022/03/06 00:43:04;;;;;;;9.43;4.28;;;;;;;;;;2081055;28;20483;-70
2022/03/06 00:44:23;;;;;;;8.80;4.43;;;;;;;;;;2079359;28;20041;-69
2022/03/06 00:45:42;;;;;;;7.93;4.47;;;;;;;;;;2080125;28;20037;-69
2022/03/06 00:47:01;;;;;;;8.43;4.70;;;;;;;;;;2080312;28;20403;-69
2022/03/06 00:48:20;;;;;;;11.18;4.90;;;;;;;;;;2079167;28;20033;-69
2022/03/06 00:49:39;;;;;;;8.48;4.15;;;;;;;;;;2080580;28;20452;-68
2022/03/06 00:50:59;;;;;;;7.47;4.57;;;;;;;;;;2079591;28;20033;-69
2022/03/06 00:52:17;;;;;;;4.85;4.00;;;;;;;;;;2079383;28;20497;-68
2022/03/06 00:53:36;;;;;;;12.20;4.30;;;;;;;;;;2081103;28;20041;-70
2022/03/06 00:54:55;;;;;;;8.75;3.97;;;;;;;;;;2080431;28;20033;-69
2022/03/06 00:56:15;;;;;;;8.02;4.20;;;;;;;;;;2078590;28;20061;-69
2022/03/06 00:57:34;;;;;;;7.68;4.28;;;;;;;;;;2079735;28;20042;-69
2022/03/06 00:58:52;;;;;;;8.68;3.97;;;;;;;;;;2080283;28;20029;-69
2022/03/06 01:00:11;;;;;;;7.15;3.33;;;;;;;;;;2079541;28;20749;-69
2022/03/06 01:01:30;;;;;;;5.35;3.75;;;;;;;;;;2078485;28;20502;-68
2022/03/06 01:02:49;;;;;;;5.85;3.83;;;;;;;;;;2080996;28;20480;-68
2022/03/06 01:04:08;;;;;;;4.68;3.88;;;;;;;;;;2080198;28;20033;-69
2022/03/06 01:05:27;;;;;;;7.03;4.20;;;;;;;;;;2080431;28;20109;-68
2022/03/06 01:06:47;;;;;;;4.85;4.22;;;;;;;;;;2080460;28;20450;-69
2022/03/06 01:08:06;;;;;;;5.28;3.85;;;;;;;;;;2079524;28;20053;-69
2022/03/06 01:09:25;;;;;;;8.07;4.40;;;;;;;;;;2081509;28;20034;-69
2022/03/06 01:10:45;;;;;;;7.75;3.90;;;;;;;;;;2080445;28;20041;-69
2022/03/06 01:12:04;;;;;;;12.15;4.20;;;;;;;;;;2078012;28;20030;-69
2022/03/06 01:13:23;;;;;;;5.88;3.95;;;;;;;;;;2081306;28;20033;-69
2022/03/06 01:14:42;;;;;;;9.35;3.85;;;;;;;;;;2080391;28;20030;-68
2022/03/06 01:16:01;;;;;;;8.48;4.35;;;;;;;;;;2079396;28;20030;-68
2022/03/06 01:17:20;;;;;;;7.63;3.50;;;;;;;;;;2081228;28;20037;-70
2022/03/06 01:18:39;;;;;;;5.18;4.28;;;;;;;;;;2080126;28;20026;-69
2022/03/06 01:19:58;;;;;;;8.13;3.67;;;;;;;;;;2080933;28;20033;-69
2022/03/06 01:21:17;;;;;;;7.95;4.15;;;;;;;;;;2078141;28;20026;-68
2022/03/06 01:22:36;;;;;;;6.28;3.40;;;;;;;;;;2080801;28;20120;-68
2022/03/06 01:23:54;;;;;;;8.38;4.63;;;;;;;;;;2080368;28;20472;-68
2022/03/06 01:25:13;;;;;;;10.75;4.45;;;;;;;;;;2080567;28;20393;-70
2022/03/06 01:26:32;;;;;;;11.30;4.47;;;;;;;;;;2080139;28;20896;-69
2022/03/06 01:27:51;;;;;;;5.10;4.50;;;;;;;;;;2080657;28;20038;-68
2022/03/06 01:29:10;;;;;;;6.05;3.85;;;;;;;;;;2081205;28;20496;-69
2022/03/06 01:30:29;;;;;;;5.32;4.00;;;;;;;;;;2081865;28;20038;-69
2022/03/06 01:31:48;;;;;;;7.05;3.70;;;;;;;;;;2077868;28;20037;-69
2022/03/06 01:33:07;;;;;;;5.93;3.33;;;;;;;;;;2078950;28;20124;-69
2022/03/06 01:34:26;;;;;;;7.13;4.18;;;;;;;;;;2078753;28;20030;-69
2022/03/06 01:35:45;;;;;;;8.77;4.05;;;;;;;;;;2080663;28;20029;-69
2022/03/06 01:37:04;;;;;;;4.85;3.28;;;;;;;;;;2079705;28;20108;-68
2022/03/06 01:38:23;;;;;;;6.78;3.75;;;;;;;;;;2081384;28;20049;-69
2022/03/06 01:39:42;;;;;;;8.70;4.38;;;;;;;;;;2081549;28;20030;-69
2022/03/06 01:41:01;;;;;;;8.63;3.55;;;;;;;;;;2080742;28;20034;-69
2022/03/06 01:42:20;;;;;;;5.55;3.50;;;;;;;;;;2079506;28;20080;-69
2022/03/06 01:43:39;;;;;;;9.93;3.80;;;;;;;;;;2080637;28;20033;-70
2022/03/06 01:44:58;;;;;;;6.35;3.15;;;;;;;;;;2081594;28;20029;-69
2022/03/06 01:46:17;;;;;;;6.50;3.92;;;;;;;;;;2078558;28;20026;-68
2022/03/06 01:47:44;;;;;;;4.38;3.00;;;;;;;;;;2079189;28;20029;-68
2022/03/06 01:49:03;;;;;;;4.32;3.00;;;;;;;;;;2078515;28;20585;-69
2022/03/06 01:50:30;;;;;;;6.43;3.05;;;;;;;;;;2080197;28;20496;-69
2022/03/06 01:51:49;;;;;;;5.50;3.33;;;;;;;;;;2078046;28;20457;-69
2022/03/06 01:53:09;;;;;;;5.50;2.97;;;;;;;;;;2080444;28;20025;-68
2022/03/06 01:54:28;;;;;;;4.97;3.25;;;;;;;;;;2080810;28;20101;-69
2022/03/06 01:55:47;;;;;;;5.20;3.40;;;;;;;;;;2080338;28;20035;-69
2022/03/06 01:57:06;;;;;;;8.68;3.20;;;;;;;;;;2078622;28;20034;-69
2022/03/06 01:58:25;;;;;;;8.15;3.42;;;;;;;;;;2080044;28;20026;-69
2022/03/06 01:59:44;;;;;;;5.32;3.78;;;;;;;;;;2080891;28;20025;-69
2022/03/06 02:01:03;;;;;;;4.47;3.10;;;;;;;;;;2080339;28;20069;-68
2022/03/06 02:02:22;;;;;;;4.30;2.95;;;;;;;;;;2079426;28;20465;-69
2022/03/06 02:03:42;;;;;;;9.27;3.55;;;;;;;;;;2080331;28;20041;-68
2022/03/06 02:05:01;;;;;;;4.70;2.90;;;;;;;;;;2080798;28;20470;-69
2022/03/06 02:06:21;;;;;;;6.28;3.05;;;;;;;;;;2078264;28;20469;-68
2022/03/06 02:07:40;;;;;;;3.42;3.10;;;;;;;;;;2079850;28;20034;-67
2022/03/06 02:08:59;;;;;;;4.45;2.70;;;;;;;;;;2080788;28;20022;-69
2022/03/06 02:10:18;;;;;;;7.35;3.25;;;;;;;;;;2079540;28;20112;-67
2022/03/06 02:11:39;;;;;;;3.95;2.40;;;;;;;;;;2079209;28;20029;-68
2022/03/06 02:12:58;;;;;;;8.63;3.40;;;;;;;;;;2080346;28;20029;-69
2022/03/06 02:14:17;;;;;;;5.95;3.33;;;;;;;;;;2080380;28;20026;-68
2022/03/06 02:15:36;;;;;;;5.38;3.13;;;;;;;;;;2080201;28;20037;-70
2022/03/06 02:16:55;;;;;;;6.63;3.72;;;;;;;;;;2079847;28;20034;-68
2022/03/06 02:18:14;;;;;;;5.03;3.10;;;;;;;;;;2081542;28;20033;-68
2022/03/06 02:19:49;;;;;;;6.78;3.95;;;;;;;;;;2080483;28;20041;-69
2022/03/06 02:21:09;;;;;;;5.72;3.10;;;;;;;;;;2078478;28;20033;-69
2022/03/06 02:22:33;;;;;;;8.27;3.65;;;;;;;;;;2077615;28;20030;-68
2022/03/06 02:23:54;;;;;;;7.25;3.10;;;;;;;;;;2081152;28;20539;-68
2022/03/06 02:25:21;;;;;;;6.90;3.28;;;;;;;;;;2080136;28;20356;-68
2022/03/06 02:26:40;;;;;;;7.25;2.80;;;;;;;;;;2080435;28;20068;-68
2022/03/06 02:28:00;;;;;;;4.80;3.03;;;;;;;;;;2080883;28;20033;-68
2022/03/06 02:29:19;;;;;;;4.63;2.92;;;;;;;;;;2079969;28;20459;-69
2022/03/06 02:30:39;;;;;;;3.08;2.78;;;;;;;;;;2080075;28;20041;-69
2022/03/06 02:31:59;;;;;;;5.35;2.47;;;;;;;;;;2075694;28;20025;-68
2022/03/06 02:33:18;;;;;;;4.97;3.10;;;;;;;;;;2080315;28;20033;-68
2022/03/06 02:34:37;;;;;;;3.70;2.75;;;;;;;;;;2079809;28;20419;-68
2022/03/06 02:35:56;;;;;;;8.45;3.03;;;;;;;;;;2080387;28;20029;-69
2022/03/06 02:37:19;;;;;;;4.18;2.40;;;;;;;;;;2078993;28;20025;-69
2022/03/06 02:38:37;;;;;;;4.90;3.10;;;;;;;;;;2079339;28;20033;-69
2022/03/06 02:39:59;;;;;;;6.22;2.72;;;;;;;;;;2080337;28;20122;-70
2022/03/06 02:41:18;;;;;;;5.45;2.85;;;;;;;;;;2080764;28;20026;-69
2022/03/06 02:42:38;;;;;;;5.70;3.03;;;;;;;;;;2078804;28;20061;-69
2022/03/06 02:43:57;;;;;;;4.47;3.13;;;;;;;;;;2080744;28;20415;-68
2022/03/06 02:45:17;;;;;;;4.28;2.88;;;;;;;;;;2080225;28;20108;-69
2022/03/06 02:46:35;;;;;;;6.20;2.80;;;;;;;;;;2080115;28;20029;-68
2022/03/06 02:47:55;;;;;;;8.05;3.30;;;;;;;;;;2080498;28;20453;-68
2022/03/06 02:49:17;;;;;;;6.55;2.78;;;;;;;;;;2080417;28;20532;-68
2022/03/06 02:50:37;;;;;;;6.03;2.90;;;;;;;;;;2079664;28;20041;-68
2022/03/06 02:51:56;;;;;;;3.22;2.78;;;;;;;;;;2077889;28;20037;-67
2022/03/06 02:53:15;;;;;;;4.95;2.50;;;;;;;;;;2076160;28;20108;-68
2022/03/06 02:54:34;;;;;;;7.03;2.50;;;;;;;;;;2077083;28;20037;-68
2022/03/06 02:55:54;;;;;;;5.28;2.75;;;;;;;;;;2080805;28;20034;-68
2022/03/06 02:57:13;;;;;;;3.00;2.38;;;;;;;;;;2080131;28;20029;-68
2022/03/06 02:58:32;;;;;;;6.60;2.67;;;;;;;;;;2078951;28;20033;-68
2022/03/06 02:59:51;;;;;;;4.65;2.85;;;;;;;;;;2079442;28;20025;-68
2022/03/06 03:01:10;;;;;;;4.95;2.35;;;;;;;;;;2079344;28;20021;-68
2022/03/06 03:02:29;;;;;;;3.90;2.38;;;;;;;;;;2077242;28;20116;-68
2022/03/06 03:03:48;;;;;;;3.53;2.72;;;;;;;;;;2079995;28;20033;-68
2022/03/06 03:05:07;;;;;;;4.90;2.45;;;;;;;;;;2080096;28;20498;-67
2022/03/06 03:06:28;;;;;;;4.95;2.33;;;;;;;;;;2079769;28;20033;-68
2022/03/06 03:07:48;;;;;;;3.75;2.40;;;;;;;;;;2078700;28;20038;-67
2022/03/06 03:09:07;;;;;;;2.90;2.38;;;;;;;;;;2080110;28;20037;-68
2022/03/06 03:10:27;;;;;;;4.00;2.70;;;;;;;;;;2080522;28;20033;-68
2022/03/06 03:11:47;;;;;;;4.78;2.53;;;;;;;;;;2077152;28;20058;-68
2022/03/06 03:13:06;;;;;;;5.78;2.60;;;;;;;;;;2078461;28;20025;-68
2022/03/06 03:14:25;;;;;;;6.20;2.58;;;;;;;;;;2078862;28;20033;-68
2022/03/06 03:15:43;;;;;;;4.60;2.55;;;;;;;;;;2080282;28;20033;-67
2022/03/06 03:17:03;;;;;;;2.88;2.60;;;;;;;;;;2080138;28;20025;-68
2022/03/06 03:18:22;;;;;;;6.40;2.72;;;;;;;;;;2078379;28;20388;-68
2022/03/06 03:19:41;;;;;;;4.30;2.67;;;;;;;;;;2080041;28;20025;-68
2022/03/06 03:21:00;;;;;;;4.53;2.92;;;;;;;;;;2078279;28;20104;-68
2022/03/06 03:22:19;;;;;;;6.18;2.35;;;;;;;;;;2080007;28;20188;-68
2022/03/06 03:23:38;;;;;;;5.50;2.45;;;;;;;;;;2079034;28;20451;-68
2022/03/06 03:24:57;;;;;;;4.57;2.17;;;;;;;;;;2076792;28;20045;-67
2022/03/06 03:26:16;;;;;;;2.58;2.20;;;;;;;;;;2077278;28;20038;-68
2022/03/06 03:27:35;;;;;;;4.10;2.35;;;;;;;;;;2079543;28;20060;-67
2022/03/06 03:28:54;;;;;;;4.90;2.45;;;;;;;;;;2077722;28;20029;-68
2022/03/06 03:30:14;;;;;;;10.98;2.33;;;;;;;;;;2079765;28;20029;-68
2022/03/06 03:31:33;;;;;;;3.50;2.13;;;;;;;;;;2078593;28;20041;-68
2022/03/06 03:32:51;;;;;;;4.78;2.10;;;;;;;;;;2080043;28;20033;-68
2022/03/06 03:34:10;;;;;;;3.50;2.22;;;;;;;;;;2079435;28;20395;-68
2022/03/06 03:35:29;;;;;;;4.95;2.20;;;;;;;;;;2079062;28;20033;-68
2022/03/06 03:36:48;;;;;;;3.67;2.35;;;;;;;;;;2078395;28;20026;-68
2022/03/06 03:38:07;;;;;;;3.83;2.55;;;;;;;;;;2079585;28;20025;-68
2022/03/06 03:39:26;;;;;;;4.15;1.83;;;;;;;;;;2079411;28;20112;-68
2022/03/06 03:40:47;;;;;;;6.10;2.60;;;;;;;;;;2078951;28;20061;-69
2022/03/06 03:42:06;;;;;;;5.35;2.10;;;;;;;;;;2078090;28;20412;-66
2022/03/06 03:43:25;;;;;;;6.32;2.33;;;;;;;;;;2078749;28;20042;-68
2022/03/06 03:44:43;;;;;;;5.43;2.15;;;;;;;;;;2079457;28;20399;-67
2022/03/06 03:46:03;;;;;;;2.28;1.90;;;;;;;;;;2080500;28;20045;-69
2022/03/06 03:47:22;;;;;;;3.55;1.75;;;;;;;;;;2079267;28;20108;-67
2022/03/06 03:48:41;;;;;;;3.97;2.10;;;;;;;;;;2078797;28;20511;-69
2022/03/06 03:50:00;;;;;;;2.75;1.85;;;;;;;;;;2080522;28;20037;-70
2022/03/06 03:51:19;;;;;;;4.30;1.88;;;;;;;;;;2079721;28;20037;-71
2022/03/06 03:52:37;;;;;;;4.22;1.80;;;;;;;;;;2077532;28;20029;-71
2022/03/06 03:53:56;;;;;;;2.13;1.98;;;;;;;;;;2076308;28;20037;-71
2022/03/06 03:55:15;;;;;;;3.70;2.25;;;;;;;;;;2079144;28;20038;-70
2022/03/06 03:56:34;;;;;;;2.05;1.67;;;;;;;;;;2079921;28;20033;-70
2022/03/06 03:57:53;;;;;;;4.00;1.95;;;;;;;;;;2080168;28;20029;-70
2022/03/06 03:59:12;;;;;;;1.88;1.40;;;;;;;;;;2078959;28;20141;-71
2022/03/06 04:00:32;;;;;;;5.75;2.10;;;;;;;;;;2079521;28;20025;-70
2022/03/06 04:01:51;;;;;;;7.38;2.05;;;;;;;;;;2078161;28;20478;-70
2022/03/06 04:03:10;;;;;;;2.72;1.38;;;;;;;;;;2078009;28;20038;-70
2022/03/06 04:04:29;;;;;;;2.88;1.92;;;;;;;;;;2079355;28;20527;-69
2022/03/06 04:05:49;;;;;;;3.00;2.03;;;;;;;;;;2080395;28;20120;-67
2022/03/06 04:07:08;;;;;;;3.80;1.63;;;;;;;;;;2078993;28;20057;-67
2022/03/06 04:08:27;;;;;;;3.55;1.73;;;;;;;;;;2079877;28;20520;-68
2022/03/06 04:09:46;;;;;;;2.60;1.77;;;;;;;;;;2079866;28;20037;-69
2022/03/06 04:11:05;;;;;;;2.85;1.55;;;;;;;;;;2078516;28;20029;-69
2022/03/06 04:12:23;;;;;;;3.13;2.00;;;;;;;;;;2079320;28;20085;-69
2022/03/06 04:13:42;;;;;;;2.67;1.83;;;;;;;;;;2080183;28;20037;-69
2022/03/06 04:15:02;;;;;;;2.10;1.90;;;;;;;;;;2078213;28;20033;-68
2022/03/06 04:16:21;;;;;;;3.97;1.50;;;;;;;;;;2080907;28;20042;-68
2022/03/06 04:17:40;;;;;;;2.70;1.83;;;;;;;;;;2081724;28;20038;-68
2022/03/06 04:18:58;;;;;;;2.05;1.60;;;;;;;;;;2081076;28;20409;-69
2022/03/06 04:20:17;;;;;;;3.65;2.15;;;;;;;;;;2082029;28;20026;-69
2022/03/06 04:21:37;;;;;;;4.07;1.90;;;;;;;;;;2081150;28;20022;-69
2022/03/06 04:22:56;;;;;;;2.97;1.48;;;;;;;;;;2080182;28;20049;-69
2022/03/06 04:24:15;;;;;;;4.03;1.75;;;;;;;;;;2079552;28;20037;-68
2022/03/06 04:25:34;;;;;;;2.60;1.85;;;;;;;;;;2081089;28;20034;-68
2022/03/06 04:26:53;;;;;;;4.95;2.05;;;;;;;;;;2081400;28;20029;-69
2022/03/06 04:28:12;;;;;;;3.10;1.77;;;;;;;;;;2081142;28;20025;-69
2022/03/06 04:29:31;;;;;;;1.77;1.50;;;;;;;;;;2080089;28;20054;-69
2022/03/06 04:30:50;;;;;;;5.15;2.03;;;;;;;;;;2077415;28;20025;-69
2022/03/06 04:32:09;;;;;;;2.55;1.50;;;;;;;;;;2079386;28;20449;-68
2022/03/06 04:33:28;;;;;;;4.07;1.52;;;;;;;;;;2081445;28;20046;-69
2022/03/06 04:34:47;;;;;;;3.67;1.50;;;;;;;;;;2080478;28;20034;-69
2022/03/06 04:36:05;;;;;;;2.33;1.60;;;;;;;;;;2081547;28;20121;-68
2022/03/06 04:37:25;;;;;;;3.05;1.58;;;;;;;;;;2081597;28;20025;-68
2022/03/06 04:38:44;;;;;;;2.75;1.52;;;;;;;;;;2078803;28;20091;-69
2022/03/06 04:40:03;;;;;;;4.30;2.13;;;;;;;;;;2080748;28;20041;-68
2022/03/06 04:41:22;;;;;;;4.20;1.65;;;;;;;;;;2080480;28;20077;-69
2022/03/06 04:42:42;;;;;;;2.00;1.55;;;;;;;;;;2081706;28;20065;-70
2022/03/06 04:44:00;;;;;;;8.77;1.92;;;;;;;;;;2081361;28;20018;-69
2022/03/06 04:45:20;;;;;;;2.33;1.65;;;;;;;;;;2078013;28;20566;-69
2022/03/06 04:46:38;;;;;;;2.63;2.08;;;;;;;;;;2080678;28;20484;-70
2022/03/06 04:47:58;;;;;;;2.30;1.42;;;;;;;;;;2079910;28;20041;-71
2022/03/06 04:49:16;;;;;;;2.60;1.25;;;;;;;;;;2081083;28;20117;-69
2022/03/06 04:50:35;;;;;;;2.20;1.35;;;;;;;;;;2081273;28;20120;-69
2022/03/06 04:51:54;;;;;;;3.13;1.42;;;;;;;;;;2078924;28;20033;-67
2022/03/06 04:53:13;;;;;;;1.52;1.30;;;;;;;;;;2080558;28;20507;-69
2022/03/06 04:54:32;;;;;;;1.88;1.55;;;;;;;;;;2079506;28;20038;-69
2022/03/06 04:55:51;;;;;;;1.90;1.60;;;;;;;;;;2079906;28;20117;-69
2022/03/06 04:57:10;;;;;;;2.13;1.70;;;;;;;;;;2080921;28;20017;-69
2022/03/06 04:58:29;;;;;;;4.00;1.63;;;;;;;;;;2081111;28;20034;-69
2022/03/06 04:59:48;;;;;;;2.47;1.83;;;;;;;;;;2080254;28;20496;-69
2022/03/06 05:01:07;;;;;;;2.38;1.73;;;;;;;;;;2081924;28;20057;-66
2022/03/06 05:02:26;;;;;;;5.38;1.48;;;;;;;;;;2080207;28;20484;-69
2022/03/06 05:03:45;;;;;;;2.38;1.25;;;;;;;;;;2080611;28;20025;-69
2022/03/06 05:05:04;;;;;;;5.75;1.55;;;;;;;;;;2080705;28;20038;-67
2022/03/06 05:06:23;;;;;;;3.00;1.33;;;;;;;;;;2080913;28;20563;-68
2022/03/06 05:07:42;;;;;;;1.42;1.23;;;;;;;;;;2081327;28;20042;-69
2022/03/06 05:09:01;;;;;;;1.77;1.45;;;;;;;;;;2080789;28;20426;-68
2022/03/06 05:10:20;;;;;;;2.10;1.50;;;;;;;;;;2079728;28;20115;-69
2022/03/06 05:11:39;;;;;;;2.58;1.25;;;;;;;;;;2079650;28;20538;-69
2022/03/06 05:12:58;;;;;;;3.70;1.92;;;;;;;;;;2079024;28;20025;-69
2022/03/06 05:14:17;;;;;;;1.20;1.10;;;;;;;;;;2081033;28;20034;-69
2022/03/06 05:15:36;;;;;;;4.28;1.40;;;;;;;;;;2081005;28;20037;-69
2022/03/06 05:16:55;;;;;;;1.58;1.40;;;;;;;;;;2080331;28;20057;-69
2022/03/06 05:18:14;;;;;;;3.35;1.33;;;;;;;;;;2081162;28;20029;-69
2022/03/06 05:19:33;;;;;;;1.92;1.30;;;;;;;;;;2080795;28;20282;-69
2022/03/06 05:20:52;;;;;;;2.35;1.00;;;;;;;;;;2080481;28;20077;-68
2022/03/06 05:22:11;;;;;;;2.83;1.40;;;;;;;;;;2078926;28;20030;-69
2022/03/06 05:23:29;;;;;;;2.92;1.17;;;;;;;;;;2080833;28;20547;-68
2022/03/06 05:24:48;;;;;;;3.50;1.10;;;;;;;;;;2079543;28;20559;-69
2022/03/06 05:26:07;;;;;;;5.13;1.60;;;;;;;;;;2079205;28;20033;-69
2022/03/06 05:27:27;;;;;;;1.85;1.08;;;;;;;;;;2075856;28;20030;-69
2022/03/06 05:28:45;;;;;;;2.92;1.40;;;;;;;;;;2080428;28;20026;-68
2022/03/06 05:30:05;;;;;;;2.35;1.20;;;;;;;;;;2078542;28;20529;-68
2022/03/06 05:31:24;;;;;;;1.50;1.02;;;;;;;;;;2080790;28;20057;-68
2022/03/06 05:32:44;;;;;;;2.92;1.30;;;;;;;;;;2080773;28;20077;-68
2022/03/06 05:34:03;;;;;;;2.83;1.10;;;;;;;;;;2079397;28;20037;-68
2022/03/06 05:35:22;;;;;;;1.38;0.90;;;;;;;;;;2080785;28;20104;-67
2022/03/06 05:36:40;;;;;;;2.45;1.20;;;;;;;;;;2077776;28;20569;-69
2022/03/06 05:37:59;;;;;;;1.20;1.10;;;;;;;;;;2081259;28;20026;-69
2022/03/06 05:39:18;;;;;;;2.70;1.10;;;;;;;;;;2081260;28;20034;-68
2022/03/06 05:40:37;;;;;;;2.33;0.90;;;;;;;;;;2079967;28;20115;-69
2022/03/06 05:41:56;;;;;;;1.13;1.00;;;;;;;;;;2079358;28;20017;-69
2022/03/06 05:43:15;;;;;;;1.88;1.05;;;;;;;;;;2079968;28;20022;-68
2022/03/06 05:44:34;;;;;;;2.95;1.00;;;;;;;;;;2080919;28;20496;-69
2022/03/06 05:45:53;;;;;;;1.23;1.05;;;;;;;;;;2079397;28;20041;-68
2022/03/06 05:47:12;;;;;;;1.77;1.00;;;;;;;;;;2082009;28;20025;-68
2022/03/06 05:48:31;;;;;;;1.25;1.15;;;;;;;;;;2082977;28;20045;-68
2022/03/06 05:49:50;;;;;;;2.05;0.80;;;;;;;;;;2080187;28;20029;-69
2022/03/06 05:51:09;;;;;;;1.40;0.85;;;;;;;;;;2078775;28;20497;-69
2022/03/06 05:52:28;;;;;;;3.20;1.30;;;;;;;;;;2080074;28;20064;-68
2022/03/06 05:53:47;;;;;;;1.73;1.05;;;;;;;;;;2082138;28;20025;-68
2022/03/06 05:55:06;;;;;;;1.50;1.33;;;;;;;;;;2081210;28;20037;-69
2022/03/06 05:56:26;;;;;;;3.42;0.98;;;;;;;;;;2079193;28;20046;-69
2022/03/06 05:57:45;;;;;;;2.88;0.85;;;;;;;;;;2079637;28;20021;-68
2022/03/06 05:59:04;;;;;;;3.13;1.30;;;;;;;;;;2078309;28;20038;-69
2022/03/06 06:00:23;;;;;;;1.17;1.00;;;;;;;;;;2079736;28;20658;-69
2022/03/06 06:01:42;;;;;;;2.72;1.25;;;;;;;;;;2080625;28;20046;-68
2022/03/06 06:03:02;;;;;;;2.58;1.45;;;;;;;;;;2079999;28;20029;-70
2022/03/06 06:04:22;;;;;;;2.17;1.20;;;;;;;;;;2078356;28;20022;-68
2022/03/06 06:05:40;;;;;;;1.50;0.80;;;;;;;;;;2078160;28;20691;-68
2022/03/06 06:06:59;;;;;;;1.17;1.00;;;;;;;;;;2080281;28;20037;-68
2022/03/06 06:08:18;;;;;;;1.70;0.93;;;;;;;;;;2080360;28;20026;-68
2022/03/06 06:09:37;;;;;;;2.28;1.00;;;;;;;;;;2081076;28;20435;-70
2022/03/06 06:10:56;;;;;;;0.90;0.90;;;;;;;;;;2079307;28;20057;-70
2022/03/06 06:12:15;;;;;;;3.30;1.10;;;;;;;;;;2078495;28;20026;-70
2022/03/06 06:13:34;;;;;;;2.03;1.20;;;;;;;;;;2080387;28;20030;-70
2022/03/06 06:14:53;;;;;;;2.05;1.20;;;;;;;;;;2076732;28;20203;-69
2022/03/06 06:16:13;;;;;;;1.63;1.15;;;;;;;;;;2074192;28;20034;-69
2022/03/06 06:17:32;;;;;;;1.80;1.15;;;;;;;;;;2080445;28;20030;-70
2022/03/06 06:18:51;;;;;;;3.28;1.10;;;;;;;;;;2078692;28;20455;-71
2022/03/06 06:20:11;;;;;;;2.10;1.00;;;;;;;;;;2079357;28;20484;-69
2022/03/06 06:21:30;;;;;;;1.23;1.13;;;;;;;;;;2079328;28;20037;-71
2022/03/06 06:22:53;;;;;;;0.88;0.80;;;;;;;;;;2080708;28;20029;-70
2022/03/06 06:24:13;;;;;;;1.00;0.90;;;;;;;;;;2080459;28;20561;-70
2022/03/06 06:25:32;;;;;;;1.48;1.05;;;;;;;;;;2080543;28;20130;-71
2022/03/06 06:26:53;;;;;;;3.70;1.75;;;;;;;;;;2080194;28;20049;-71
2022/03/06 06:28:12;;;;;;;2.55;1.45;;;;;;;;;;2080213;28;20551;-71
2022/03/06 06:29:31;;;;;;;1.95;1.17;;;;;;;;;;2080121;28;20033;-71
2022/03/06 06:30:50;;;;;;;1.85;1.00;;;;;;;;;;2079135;28;20029;-71
2022/03/06 06:32:09;;;;;;;3.20;0.95;;;;;;;;;;2078831;28;20034;-71
2022/03/06 06:33:28;;;;;;;2.00;1.33;;;;;;;;;;2075593;28;20124;-70
2022/03/06 06:34:47;;;;;;;2.88;1.23;;;;;;;;;;2080523;28;20067;-71
2022/03/06 06:36:06;;;;;;;2.58;1.05;;;;;;;;;;2079458;28;20029;-71
2022/03/06 06:37:25;;;;;;;1.40;1.10;;;;;;;;;;2079986;28;20029;-69
2022/03/06 06:38:44;;;;;;;3.35;0.95;;;;;;;;;;2077774;28;20080;-70
2022/03/06 06:40:03;;;;;;;1.48;0.95;;;;;;;;;;2080257;28;20026;-71
2022/03/06 06:41:22;;;;;;;3.95;1.13;;;;;;;;;;2079509;28;20025;-71
2022/03/06 06:42:41;;;;;;;2.90;0.80;;;;;;;;;;2079421;28;20496;-71
2022/03/06 06:44:00;;;;;;;3.22;1.00;;;;;;;;;;2079417;28;20029;-71
2022/03/06 06:45:19;;;;;;;1.25;0.80;;;;;;;;;;2080581;28;20029;-71
2022/03/06 06:46:38;;;;;;;1.55;1.00;;;;;;;;;;2078965;28;20069;-70
2022/03/06 06:47:56;;;;;;;4.55;0.90;;;;;;;;;;2078944;28;20037;-71
2022/03/06 06:49:15;;;;;;;1.15;0.88;;;;;;;;;;2079453;28;20025;-71
2022/03/06 06:50:34;;;;;;;1.30;0.82;;;;;;;;;;2079983;28;20033;-70
2022/03/06 06:51:53;;;;;;;2.83;1.20;;;;;;;;;;2064462;28;20550;-71
2022/03/06 06:53:12;;;;;;;3.45;1.00;;;;;;;;;;2072033;28;20041;-69
2022/03/06 06:54:31;;;;;;;3.22;1.10;;;;;;;;;;2079641;28;20064;-72
2022/03/06 06:55:50;;;;;;;1.02;0.93;;;;;;;;;;2076670;28;20034;-71
2022/03/06 06:57:09;;;;;;;4.22;0.93;;;;;;;;;;2076440;28;20392;-72
2022/03/06 06:58:28;;;;;;;4.60;1.15;;;;;;;;;;2072242;28;20034;-69
2022/03/06 06:59:47;;;;;;;1.13;0.85;;;;;;;;;;2074002;28;20041;-70
2022/03/06 07:01:05;;;;;;;1.25;0.90;;;;;;;;;;2077632;28;20032;-70
2022/03/06 07:02:25;;;;;;;2.08;0.90;;;;;;;;;;2079426;28;20428;-71
2022/03/06 07:03:43;;;;;;;0.90;0.80;;;;;;;;;;2079760;28;20033;-71
2022/03/06 07:05:02;;;;;;;1.88;1.33;;;;;;;;;;2077332;28;20097;-70
2022/03/06 07:06:21;;;;;;;2.78;1.02;;;;;;;;;;2079111;28;20709;-71
2022/03/06 07:07:40;;;;;;;2.35;0.88;;;;;;;;;;2079483;28;20582;-71
2022/03/06 07:08:59;;;;;;;5.90;1.05;;;;;;;;;;2079841;28;20476;-70
2022/03/06 07:10:18;;;;;;;1.10;0.82;;;;;;;;;;2076471;28;20105;-69
2022/03/06 07:11:37;;;;;;;1.52;1.05;;;;;;;;;;2077809;28;20475;-70
2022/03/06 07:12:58;;;;;;;1.13;0.70;;;;;;;;;;2078243;28;20575;-70
2022/03/06 07:14:17;;;;;;;2.20;1.05;;;;;;;;;;2073362;28;20030;-71
2022/03/06 07:15:36;;;;;;;2.22;1.20;;;;;;;;;;2076557;28;20483;-69
2022/03/06 07:16:55;;;;;;;0.88;0.70;;;;;;;;;;2077718;28;20029;-71
2022/03/06 07:18:14;;;;;;;1.25;0.82;;;;;;;;;;2078355;28;20033;-70
2022/03/06 07:19:33;;;;;;;2.80;0.90;;;;;;;;;;2075944;28;20025;-70
2022/03/06 07:20:53;;;;;;;0.68;0.57;;;;;;;;;;2079611;28;20506;-69
2022/03/06 07:22:12;;;;;;;5.10;1.83;;;;;;;;;;2079829;28;20468;-69
2022/03/06 07:23:31;;;;;;;3.80;1.00;;;;;;;;;;2078338;28;20025;-70
2022/03/06 07:24:50;;;;;;;2.05;0.70;;;;;;;;;;2078650;28;20120;-70
2022/03/06 07:26:09;;;;;;;0.70;0.60;;;;;;;;;;2079825;28;20033;-69
2022/03/06 07:27:28;;;;;;;1.85;0.93;;;;;;;;;;2079003;28;20041;-70
2022/03/06 07:28:47;;;;;;;0.65;0.65;;;;;;;;;;2076136;28;20037;-70
2022/03/06 07:30:06;;;;;;;0.82;0.68;;;;;;;;;;2078975;28;20359;-70
2022/03/06 07:31:25;;;;;;;7.25;1.50;;;;;;;;;;2079931;28;20037;-70
2022/03/06 07:32:45;;;;;;;2.85;1.05;;;;;;;;;;2079263;28;20403;-70
2022/03/06 07:34:04;;;;;;;0.73;0.70;;;;;;;;;;2077281;28;20041;-70
2022/03/06 07:35:23;;;;;;;1.50;0.50;;;;;;;;;;2079273;28;20030;-70
2022/03/06 07:36:42;;;;;;;0.70;0.70;;;;;;;;;;2079524;28;20478;-71
2022/03/06 07:38:01;;;;;;;0.90;0.32;;;;;;;;;;2079068;28;20064;-70
2022/03/06 07:39:20;;;;;;;1.67;0.73;;;;;;;;;;2077132;28;20565;-70
2022/03/06 07:40:39;;;;;;;2.00;0.57;;;;;;;;;;2078902;28;20051;-70
2022/03/06 07:41:58;;;;;;;3.90;0.70;;;;;;;;;;2078304;28;20512;-69
2022/03/06 07:43:16;;;;;;;1.42;0.60;;;;;;;;;;2078976;28;20033;-70
2022/03/06 07:44:35;;;;;;;0.50;0.50;;;;;;;;;;2078391;28;20026;-70
2022/03/06 07:45:55;;;;;;;0.80;0.30;;;;;;;;;;2077885;28;20065;-70
2022/03/06 07:47:14;;;;;;;2.60;0.60;;;;;;;;;;2077159;28;20033;-69
2022/03/06 07:48:33;;;;;;;0.80;0.60;;;;;;;;;;2079032;28;20534;-70
2022/03/06 07:49:52;;;;;;;2.15;0.70;;;;;;;;;;2078543;28;20045;-69
2022/03/06 07:51:11;;;;;;;3.85;1.13;;;;;;;;;;2079581;28;20401;-70
2022/03/06 07:52:29;;;;;;;0.60;0.60;;;;;;;;;;2077452;28;20416;-70
2022/03/06 07:53:48;;;;;;;3.42;0.60;;;;;;;;;;2077778;28;20491;-70
2022/03/06 07:55:08;;;;;;;1.05;0.68;;;;;;;;;;2080332;28;20025;-70